createdAt,value
2016-11-17T00:00:25.456Z,0
2016-11-17T00:01:34.097Z,0
2016-11-17T00:02:42.733Z,0
2016-11-17T00:03:51.373Z,0
2016-11-17T00:04:59.974Z,0
2016-11-17T00:06:08.611Z,0
2016-11-17T00:07:17.242Z,0
2016-11-17T00:08:25.882Z,0
2016-11-17T00:09:34.530Z,0
2016-11-17T00:10:43.158Z,0
2016-11-17T00:11:51.803Z,0
2016-11-17T00:13:00.462Z,0
2016-11-17T00:14:09.086Z,0
2016-11-17T00:15:17.709Z,0
2016-11-17T00:16:26.325Z,0
2016-11-17T00:17:34.948Z,0
2016-11-17T00:18:43.549Z,0
2016-11-17T00:19:52.213Z,0
2016-11-17T00:21:00.863Z,0
2016-11-17T00:22:09.501Z,0
2016-11-17T00:23:18.127Z,0
2016-11-17T00:24:26.758Z,0
2016-11-17T00:25:35.398Z,0
2016-11-17T00:26:44.011Z,0
2016-11-17T00:27:52.940Z,0
2016-11-17T00:29:01.569Z,0
2016-11-17T00:30:10.200Z,0
2016-11-17T00:31:18.850Z,0
2016-11-17T00:32:27.455Z,0
2016-11-17T00:33:36.146Z,0
2016-11-17T00:34:44.776Z,0
2016-11-17T00:35:53.436Z,0
2016-11-17T00:37:02.076Z,0
2016-11-17T00:38:10.709Z,0
2016-11-17T00:39:19.330Z,0
2016-11-17T00:40:27.947Z,0
2016-11-17T00:41:36.897Z,0
2016-11-17T00:42:45.513Z,0
2016-11-17T00:43:54.414Z,0
2016-11-17T00:45:03.031Z,0
2016-11-17T00:46:11.653Z,0
2016-11-17T00:47:20.295Z,0
2016-11-17T00:48:28.919Z,0
2016-11-17T00:49:37.523Z,0
2016-11-17T00:50:46.447Z,0
2016-11-17T00:51:55.087Z,0
2016-11-17T00:53:03.729Z,0
2016-11-17T00:54:12.360Z,0
2016-11-17T00:55:21.000Z,0
2016-11-17T00:56:29.648Z,0
2016-11-17T00:57:38.285Z,0
2016-11-17T00:58:46.911Z,0
2016-11-17T00:59:55.840Z,0
2016-11-17T01:01:04.460Z,0
2016-11-17T01:02:13.097Z,0
2016-11-17T01:03:21.740Z,0
2016-11-17T01:04:30.397Z,0
2016-11-17T01:05:39.035Z,0
2016-11-17T01:06:47.636Z,0
2016-11-17T01:07:56.310Z,0
2016-11-17T01:09:04.924Z,0
2016-11-17T01:10:13.550Z,0
2016-11-17T01:11:22.188Z,0
2016-11-17T01:12:30.812Z,0
2016-11-17T01:13:39.455Z,0
2016-11-17T01:14:48.080Z,0
2016-11-17T01:15:56.704Z,0
2016-11-17T01:17:05.664Z,0
2016-11-17T01:18:14.300Z,0
2016-11-17T01:19:22.994Z,0
2016-11-17T01:20:31.652Z,0
2016-11-17T01:21:40.282Z,0
2016-11-17T01:22:48.903Z,0
2016-11-17T01:23:57.554Z,0
2016-11-17T01:25:06.188Z,0
2016-11-17T01:26:14.813Z,0
2016-11-17T01:27:23.429Z,0
2016-11-17T01:28:32.058Z,0
2016-11-17T01:29:40.687Z,0
2016-11-17T01:30:49.300Z,0
2016-11-17T01:31:57.921Z,0
2016-11-17T01:33:06.542Z,0
2016-11-17T01:34:15.169Z,0
2016-11-17T01:35:23.788Z,0
2016-11-17T01:36:32.403Z,0
2016-11-17T01:37:41.045Z,0
2016-11-17T01:38:49.680Z,0
2016-11-17T01:39:58.319Z,0
2016-11-17T01:41:06.958Z,0
2016-11-17T01:42:15.586Z,0
2016-11-17T01:43:24.207Z,0
2016-11-17T01:44:32.832Z,0
2016-11-17T01:45:41.482Z,0
2016-11-17T01:46:50.120Z,0
2016-11-17T01:47:58.722Z,0
2016-11-17T01:49:07.354Z,0
2016-11-17T01:50:16.001Z,0
2016-11-17T01:51:24.630Z,0
2016-11-17T01:52:33.259Z,0
2016-11-17T01:53:41.876Z,0
2016-11-17T01:54:50.515Z,0
2016-11-17T01:55:59.187Z,0
2016-11-17T01:57:07.812Z,0
2016-11-17T01:58:16.439Z,0
2016-11-17T01:59:25.075Z,0
2016-11-17T02:00:34.002Z,0
2016-11-17T02:01:42.625Z,0
2016-11-17T02:02:51.273Z,0
2016-11-17T02:03:59.917Z,0
2016-11-17T02:05:08.541Z,0
2016-11-17T02:06:17.157Z,0
2016-11-17T02:07:25.817Z,0
2016-11-17T02:08:34.450Z,0
2016-11-17T02:09:43.068Z,0
2016-11-17T02:10:51.711Z,0
2016-11-17T02:12:00.352Z,0
2016-11-17T02:13:08.988Z,0
2016-11-17T02:14:17.633Z,0
2016-11-17T02:15:26.277Z,0
2016-11-17T02:16:34.925Z,0
2016-11-17T02:17:43.593Z,0
2016-11-17T02:18:52.238Z,0
2016-11-17T02:20:00.861Z,0
2016-11-17T02:21:09.530Z,0
2016-11-17T02:22:18.141Z,0
2016-11-17T02:23:26.790Z,0
2016-11-17T02:24:35.457Z,0
2016-11-17T02:25:44.114Z,0
2016-11-17T02:26:52.732Z,0
2016-11-17T02:28:01.351Z,0
2016-11-17T02:29:09.951Z,0
2016-11-17T02:30:18.594Z,0
2016-11-17T02:31:27.215Z,0
2016-11-17T02:32:35.835Z,0
2016-11-17T02:33:44.461Z,0
2016-11-17T02:34:53.085Z,0
2016-11-17T02:36:01.766Z,0
2016-11-17T02:37:10.391Z,0
2016-11-17T02:38:19.024Z,0
2016-11-17T02:39:27.666Z,0
2016-11-17T02:40:36.311Z,0
2016-11-17T02:41:44.957Z,0
2016-11-17T02:42:53.604Z,0
2016-11-17T02:44:02.222Z,0
2016-11-17T02:45:10.840Z,0
2016-11-17T02:46:19.462Z,0
2016-11-17T02:47:28.058Z,0
2016-11-17T02:48:36.671Z,0
2016-11-17T02:49:45.317Z,0
2016-11-17T02:50:53.939Z,0
2016-11-17T02:52:02.571Z,0
2016-11-17T02:53:11.193Z,0
2016-11-17T02:54:19.839Z,0
2016-11-17T02:55:28.455Z,0
2016-11-17T02:56:37.068Z,0
2016-11-17T02:57:45.739Z,0
2016-11-17T02:58:54.368Z,0
2016-11-17T03:00:02.993Z,0
2016-11-17T03:01:11.640Z,0
2016-11-17T03:02:20.278Z,0
2016-11-17T03:03:28.906Z,0
2016-11-17T03:04:37.553Z,0
2016-11-17T03:05:46.186Z,0
2016-11-17T03:06:54.837Z,0
2016-11-17T03:08:03.466Z,0
2016-11-17T03:09:12.084Z,0
2016-11-17T03:10:20.732Z,0
2016-11-17T03:11:29.354Z,0
2016-11-17T03:12:37.975Z,0
2016-11-17T03:13:46.608Z,0
2016-11-17T03:14:55.242Z,0
2016-11-17T03:16:03.885Z,0
2016-11-17T03:17:12.521Z,0
2016-11-17T03:18:21.167Z,0
2016-11-17T03:19:29.801Z,0
2016-11-17T03:20:38.421Z,0
2016-11-17T03:21:47.059Z,0
2016-11-17T03:22:55.689Z,0
2016-11-17T03:24:04.359Z,0
2016-11-17T03:25:13.007Z,0
2016-11-17T03:26:21.648Z,0
2016-11-17T03:27:30.262Z,0
2016-11-17T03:28:38.895Z,0
2016-11-17T03:29:47.519Z,0
2016-11-17T03:30:56.138Z,0
2016-11-17T03:32:05.079Z,0
2016-11-17T03:33:13.678Z,0
2016-11-17T03:34:22.273Z,0
2016-11-17T03:35:30.870Z,0
2016-11-17T03:36:39.497Z,0
2016-11-17T03:37:48.134Z,0
2016-11-17T03:38:56.756Z,0
2016-11-17T03:40:05.354Z,0
2016-11-17T03:41:13.974Z,0
2016-11-17T03:42:22.595Z,0
2016-11-17T03:43:31.196Z,0
2016-11-17T03:44:39.837Z,0
2016-11-17T03:45:48.480Z,0
2016-11-17T03:46:57.133Z,0
2016-11-17T03:48:05.772Z,0
2016-11-17T03:49:14.403Z,0
2016-11-17T03:50:23.023Z,0
2016-11-17T03:51:31.682Z,0
2016-11-17T03:52:40.303Z,0
2016-11-17T03:53:48.941Z,0
2016-11-17T03:54:57.596Z,0
2016-11-17T03:56:06.229Z,0
2016-11-17T03:57:14.874Z,0
2016-11-17T03:58:23.516Z,0
2016-11-17T03:59:32.145Z,0
2016-11-17T04:00:40.784Z,0
2016-11-17T04:01:49.405Z,0
2016-11-17T04:02:58.007Z,0
2016-11-17T04:04:06.639Z,0
2016-11-17T04:05:15.268Z,0
2016-11-17T04:06:23.890Z,0
2016-11-17T04:07:32.541Z,0
2016-11-17T04:08:41.178Z,0
2016-11-17T04:09:49.808Z,0
2016-11-17T04:10:58.442Z,0
2016-11-17T04:12:07.071Z,0
2016-11-17T04:13:15.689Z,0
2016-11-17T04:14:24.317Z,0
2016-11-17T04:15:32.964Z,0
2016-11-17T04:16:41.585Z,0
2016-11-17T04:17:50.232Z,0
2016-11-17T04:18:58.848Z,0
2016-11-17T04:20:07.471Z,0
2016-11-17T04:21:16.116Z,0
2016-11-17T04:22:24.717Z,0
2016-11-17T04:23:33.363Z,0
2016-11-17T04:24:41.996Z,0
2016-11-17T04:25:50.629Z,0
2016-11-17T04:26:59.272Z,0
2016-11-17T04:28:07.892Z,0
2016-11-17T04:29:16.538Z,0
2016-11-17T04:30:25.168Z,0
2016-11-17T04:31:33.829Z,0
2016-11-17T04:32:42.452Z,0
2016-11-17T04:33:51.074Z,0
2016-11-17T04:34:59.687Z,0
2016-11-17T04:36:08.320Z,0
2016-11-17T04:37:16.942Z,0
2016-11-17T04:38:25.613Z,0
2016-11-17T04:39:34.251Z,0
2016-11-17T04:40:42.881Z,0
2016-11-17T04:41:51.522Z,0
2016-11-17T04:43:00.147Z,0
2016-11-17T04:44:08.767Z,0
2016-11-17T04:45:17.389Z,0
2016-11-17T04:46:26.029Z,0
2016-11-17T04:47:34.653Z,0
2016-11-17T04:48:43.271Z,0
2016-11-17T04:49:51.917Z,0
2016-11-17T04:51:00.541Z,0
2016-11-17T04:52:09.165Z,0
2016-11-17T04:53:17.784Z,0
2016-11-17T04:54:26.708Z,0
2016-11-17T04:55:35.373Z,0
2016-11-17T04:56:44.001Z,0
2016-11-17T04:57:52.647Z,0
2016-11-17T04:59:01.265Z,0
2016-11-17T05:00:09.915Z,0
2016-11-17T05:01:18.563Z,0
2016-11-17T05:02:27.195Z,0
2016-11-17T05:03:35.823Z,0
2016-11-17T05:04:44.451Z,0
2016-11-17T05:05:53.109Z,0
2016-11-17T05:07:01.755Z,0
2016-11-17T05:08:10.384Z,0
2016-11-17T05:09:18.980Z,0
2016-11-17T05:10:27.601Z,0
2016-11-17T05:11:36.252Z,0
2016-11-17T05:12:44.911Z,0
2016-11-17T05:13:53.537Z,0
2016-11-17T05:15:02.162Z,0
2016-11-17T05:16:10.787Z,0
2016-11-17T05:17:19.433Z,0
2016-11-17T05:18:28.054Z,0
2016-11-17T05:19:36.706Z,0
2016-11-17T05:20:45.339Z,0
2016-11-17T05:21:53.960Z,0
2016-11-17T05:23:02.632Z,0
2016-11-17T05:24:11.262Z,0
2016-11-17T05:25:19.898Z,0
2016-11-17T05:26:28.515Z,0
2016-11-17T05:27:37.144Z,0
2016-11-17T05:28:45.767Z,0
2016-11-17T05:29:54.387Z,0
2016-11-17T05:31:03.029Z,0
2016-11-17T05:32:11.681Z,0
2016-11-17T05:33:20.330Z,0
2016-11-17T05:34:28.968Z,0
2016-11-17T05:35:37.618Z,0
2016-11-17T05:36:46.270Z,0
2016-11-17T05:37:54.915Z,0
2016-11-17T05:39:03.563Z,0
2016-11-17T05:40:12.207Z,0
2016-11-17T05:41:20.832Z,0
2016-11-17T05:42:29.498Z,0
2016-11-17T05:43:38.119Z,0
2016-11-17T05:44:46.745Z,0
2016-11-17T05:45:55.383Z,0
2016-11-17T05:47:04.002Z,0
2016-11-17T05:48:12.643Z,0
2016-11-17T05:49:21.251Z,0
2016-11-17T05:50:29.894Z,0
2016-11-17T05:51:38.535Z,0
2016-11-17T05:52:47.162Z,0
2016-11-17T05:53:55.785Z,0
2016-11-17T05:55:04.429Z,0
2016-11-17T05:56:13.345Z,0
2016-11-17T05:57:21.971Z,0
2016-11-17T05:58:30.591Z,0
2016-11-17T05:59:39.214Z,0
2016-11-17T06:00:47.834Z,0
2016-11-17T06:01:56.458Z,0
2016-11-17T06:03:05.105Z,0
2016-11-17T06:04:13.769Z,0
2016-11-17T06:05:22.373Z,0
2016-11-17T06:06:31.031Z,0
2016-11-17T06:07:39.665Z,4
2016-11-17T06:08:48.286Z,0
2016-11-17T06:09:56.948Z,4
2016-11-17T06:11:05.574Z,8
2016-11-17T06:12:14.187Z,8
2016-11-17T06:13:22.816Z,12
2016-11-17T06:14:31.437Z,12
2016-11-17T06:15:40.051Z,12
2016-11-17T06:16:48.679Z,12
2016-11-17T06:17:57.306Z,16
2016-11-17T06:19:05.976Z,16
2016-11-17T06:20:14.639Z,16
2016-11-17T06:21:23.270Z,24
2016-11-17T06:22:31.891Z,32
2016-11-17T06:23:40.535Z,28
2016-11-17T06:24:49.182Z,44
2016-11-17T06:25:57.828Z,44
2016-11-17T06:27:06.449Z,48
2016-11-17T06:28:15.121Z,56
2016-11-17T06:29:23.763Z,60
2016-11-17T06:30:32.405Z,56
2016-11-17T06:31:41.004Z,64
2016-11-17T06:32:49.656Z,68
2016-11-17T06:33:58.297Z,84
2016-11-17T06:35:06.938Z,92
2016-11-17T06:36:15.561Z,116
2016-11-17T06:37:24.189Z,136
2016-11-17T06:38:32.834Z,136
2016-11-17T06:39:41.470Z,156
2016-11-17T06:40:50.116Z,168
2016-11-17T06:41:58.762Z,184
2016-11-17T06:43:07.396Z,196
2016-11-17T06:44:16.036Z,200
2016-11-17T06:45:24.665Z,204
2016-11-17T06:46:33.309Z,200
2016-11-17T06:47:41.929Z,200
2016-11-17T06:48:50.552Z,220
2016-11-17T06:49:59.174Z,276
2016-11-17T06:51:07.806Z,304
2016-11-17T06:52:16.412Z,292
2016-11-17T06:53:25.036Z,252
2016-11-17T06:54:33.694Z,232
2016-11-17T06:55:42.321Z,228
2016-11-17T06:56:50.944Z,228
2016-11-17T06:57:59.550Z,260
2016-11-17T06:59:08.186Z,288
2016-11-17T07:00:16.801Z,308
2016-11-17T07:01:25.449Z,332
2016-11-17T07:02:34.074Z,348
2016-11-17T07:03:42.699Z,384
2016-11-17T07:04:51.345Z,484
2016-11-17T07:05:59.980Z,612
2016-11-17T07:07:08.630Z,664
2016-11-17T07:08:17.251Z,688
2016-11-17T07:09:25.901Z,684
2016-11-17T07:10:34.593Z,632
2016-11-17T07:11:43.220Z,616
2016-11-17T07:12:51.838Z,616
2016-11-17T07:14:00.436Z,664
2016-11-17T07:15:09.080Z,712
2016-11-17T07:16:17.705Z,568
2016-11-17T07:17:26.353Z,492
2016-11-17T07:18:35.010Z,464
2016-11-17T07:19:43.673Z,464
2016-11-17T07:20:52.332Z,468
2016-11-17T07:22:00.987Z,536
2016-11-17T07:23:09.607Z,632
2016-11-17T07:24:18.255Z,600
2016-11-17T07:25:26.878Z,536
2016-11-17T07:26:35.538Z,528
2016-11-17T07:27:44.162Z,484
2016-11-17T07:28:52.788Z,488
2016-11-17T07:30:01.404Z,584
2016-11-17T07:31:10.025Z,680
2016-11-17T07:32:18.663Z,876
2016-11-17T07:33:27.290Z,868
2016-11-17T07:34:35.969Z,1060
2016-11-17T07:35:44.628Z,1324
2016-11-17T07:36:53.274Z,1532
2016-11-17T07:38:01.906Z,1448
2016-11-17T07:39:10.552Z,1376
2016-11-17T07:40:19.194Z,1328
2016-11-17T07:41:27.821Z,1112
2016-11-17T07:42:36.471Z,1008
2016-11-17T07:43:45.108Z,1124
2016-11-17T07:44:53.783Z,1416
2016-11-17T07:46:02.399Z,1868
2016-11-17T07:47:11.026Z,2040
2016-11-17T07:48:19.634Z,1892
2016-11-17T07:49:28.273Z,1840
2016-11-17T07:50:36.916Z,2132
2016-11-17T07:51:45.536Z,2500
2016-11-17T07:52:54.156Z,2676
2016-11-17T07:54:02.789Z,2592
2016-11-17T07:55:11.423Z,2544
2016-11-17T07:56:20.068Z,2760
2016-11-17T07:57:28.727Z,3056
2016-11-17T07:58:37.379Z,3336
2016-11-17T07:59:46.003Z,3616
2016-11-17T08:00:54.671Z,4020
2016-11-17T08:02:03.296Z,4376
2016-11-17T08:03:11.941Z,4488
2016-11-17T08:04:20.588Z,4624
2016-11-17T08:05:29.213Z,4820
2016-11-17T08:06:37.861Z,4900
2016-11-17T08:07:46.508Z,4944
2016-11-17T08:08:55.147Z,4948
2016-11-17T08:10:03.768Z,5008
2016-11-17T08:11:12.394Z,5108
2016-11-17T08:12:21.056Z,5280
2016-11-17T08:13:29.685Z,5408
2016-11-17T08:14:38.303Z,5468
2016-11-17T08:15:46.925Z,5460
2016-11-17T08:16:55.574Z,5404
2016-11-17T08:18:04.200Z,5068
2016-11-17T08:19:12.855Z,4588
2016-11-17T08:20:21.488Z,4412
2016-11-17T08:21:30.435Z,4508
2016-11-17T08:22:39.096Z,4504
2016-11-17T08:23:47.750Z,4316
2016-11-17T08:24:56.397Z,4004
2016-11-17T08:26:05.418Z,3648
2016-11-17T08:27:14.060Z,3688
2016-11-17T08:28:22.702Z,3832
2016-11-17T08:29:31.326Z,3744
2016-11-17T08:30:39.965Z,3740
2016-11-17T08:31:48.569Z,3908
2016-11-17T08:32:57.209Z,4120
2016-11-17T08:34:05.817Z,4288
2016-11-17T08:35:14.461Z,4404
2016-11-17T08:36:23.108Z,4440
2016-11-17T08:37:31.772Z,4564
2016-11-17T08:38:40.400Z,4768
2016-11-17T08:39:49.042Z,5164
2016-11-17T08:40:57.663Z,5624
2016-11-17T08:42:06.301Z,5940
2016-11-17T08:43:14.908Z,6036
2016-11-17T08:44:23.543Z,6004
2016-11-17T08:45:32.176Z,6060
2016-11-17T08:46:40.799Z,6248
2016-11-17T08:47:49.419Z,6408
2016-11-17T08:48:58.039Z,6332
2016-11-17T08:50:06.709Z,6520
2016-11-17T08:51:15.332Z,6468
2016-11-17T08:52:23.989Z,6144
2016-11-17T08:53:32.643Z,5796
2016-11-17T08:54:41.264Z,5516
2016-11-17T08:55:49.888Z,5312
2016-11-17T08:56:58.547Z,5168
2016-11-17T08:58:07.182Z,5076
2016-11-17T08:59:15.827Z,5092
2016-11-17T09:00:24.474Z,5068
2016-11-17T09:01:33.118Z,4864
2016-11-17T09:02:41.735Z,4788
2016-11-17T09:03:50.359Z,5140
2016-11-17T09:04:59.006Z,5392
2016-11-17T09:06:07.601Z,5208
2016-11-17T09:07:16.223Z,5616
2016-11-17T09:08:24.870Z,5932
2016-11-17T09:09:33.513Z,6044
2016-11-17T09:10:42.148Z,5608
2016-11-17T09:11:51.083Z,5068
2016-11-17T09:12:59.701Z,5044
2016-11-17T09:14:08.624Z,4916
2016-11-17T09:15:17.266Z,4520
2016-11-17T09:16:25.891Z,4284
2016-11-17T09:17:34.508Z,4080
2016-11-17T09:18:43.146Z,3892
2016-11-17T09:19:51.779Z,3764
2016-11-17T09:21:00.429Z,3664
2016-11-17T09:22:09.068Z,3576
2016-11-17T09:23:17.692Z,3440
2016-11-17T09:24:26.342Z,3572
2016-11-17T09:25:34.983Z,3880
2016-11-17T09:26:43.602Z,4220
2016-11-17T09:27:52.204Z,4384
2016-11-17T09:29:00.836Z,4288
2016-11-17T09:30:09.465Z,4124
2016-11-17T09:31:18.091Z,3916
2016-11-17T09:32:26.737Z,3648
2016-11-17T09:33:35.382Z,3432
2016-11-17T09:34:44.046Z,3348
2016-11-17T09:35:52.672Z,3320
2016-11-17T09:37:01.297Z,3240
2016-11-17T09:38:10.281Z,3172
2016-11-17T09:39:18.917Z,3164
2016-11-17T09:40:27.556Z,3224
2016-11-17T09:41:36.202Z,3204
2016-11-17T09:42:44.855Z,3144
2016-11-17T09:43:53.469Z,3040
2016-11-17T09:45:02.120Z,2984
2016-11-17T09:46:10.783Z,2916
2016-11-17T09:47:19.429Z,2832
2016-11-17T09:48:28.056Z,2732
2016-11-17T09:49:36.691Z,2648
2016-11-17T09:50:45.320Z,2692
2016-11-17T09:51:53.946Z,2824
2016-11-17T09:53:02.897Z,2976
2016-11-17T09:54:11.837Z,3024
2016-11-17T09:55:20.763Z,3040
2016-11-17T09:56:29.379Z,3024
2016-11-17T09:57:38.018Z,2744
2016-11-17T09:58:46.647Z,2824
2016-11-17T09:59:55.264Z,3076
2016-11-17T10:01:03.878Z,3068
2016-11-17T10:02:12.549Z,2992
2016-11-17T10:03:21.178Z,3076
2016-11-17T10:04:29.805Z,3164
2016-11-17T10:05:38.467Z,3300
2016-11-17T10:06:47.095Z,3296
2016-11-17T10:07:55.745Z,3424
2016-11-17T10:09:04.390Z,3600
2016-11-17T10:10:13.005Z,3740
2016-11-17T10:11:21.627Z,3868
2016-11-17T10:12:30.247Z,4024
2016-11-17T10:13:38.861Z,4020
2016-11-17T10:14:47.796Z,4012
2016-11-17T10:15:56.442Z,3884
2016-11-17T10:17:05.079Z,3552
2016-11-17T10:18:13.708Z,3296
2016-11-17T10:19:22.329Z,3384
2016-11-17T10:20:30.967Z,3996
2016-11-17T10:21:39.596Z,3704
2016-11-17T10:22:48.213Z,3588
2016-11-17T10:23:56.851Z,3800
2016-11-17T10:25:05.490Z,3892
2016-11-17T10:26:14.132Z,4092
2016-11-17T10:27:22.780Z,4264
2016-11-17T10:28:31.425Z,4228
2016-11-17T10:29:40.056Z,4048
2016-11-17T10:30:48.703Z,3876
2016-11-17T10:31:57.334Z,3852
2016-11-17T10:33:05.953Z,3792
2016-11-17T10:34:14.577Z,3784
2016-11-17T10:35:23.775Z,3244
2016-11-17T10:36:32.417Z,2744
2016-11-17T10:37:41.041Z,2320
2016-11-17T10:38:49.676Z,1552
2016-11-17T10:39:58.311Z,1932
2016-11-17T10:41:06.994Z,2900
2016-11-17T10:42:15.640Z,3208
2016-11-17T10:43:24.270Z,3956
2016-11-17T10:44:32.925Z,3380
2016-11-17T10:45:41.890Z,2764
2016-11-17T10:46:50.536Z,3092
2016-11-17T10:47:59.159Z,2740
2016-11-17T10:49:08.101Z,2392
2016-11-17T10:50:16.776Z,3804
2016-11-17T10:51:25.417Z,4692
2016-11-17T10:52:34.040Z,4616
2016-11-17T10:53:42.665Z,4340
2016-11-17T10:54:51.305Z,3272
2016-11-17T10:55:59.969Z,2796
2016-11-17T10:57:08.572Z,3040
2016-11-17T10:58:17.198Z,3320
2016-11-17T10:59:25.832Z,3612
2016-11-17T11:00:34.485Z,4084
2016-11-17T11:01:43.182Z,3568
2016-11-17T11:02:51.802Z,2788
2016-11-17T11:04:00.432Z,1896
2016-11-17T11:05:09.370Z,1864
2016-11-17T11:06:17.999Z,3404
2016-11-17T11:07:26.638Z,3252
2016-11-17T11:08:35.263Z,3516
2016-11-17T11:09:43.906Z,3492
2016-11-17T11:10:52.531Z,3220
2016-11-17T11:12:01.169Z,3472
2016-11-17T11:13:10.110Z,3172
2016-11-17T11:14:18.744Z,2412
2016-11-17T11:15:27.386Z,3344
2016-11-17T11:16:36.029Z,5028
2016-11-17T11:17:44.657Z,3980
2016-11-17T11:18:53.293Z,3188
2016-11-17T11:20:02.225Z,3256
2016-11-17T11:21:10.866Z,3312
2016-11-17T11:22:19.485Z,4516
2016-11-17T11:23:28.113Z,6408
2016-11-17T11:24:36.755Z,6296
2016-11-17T11:25:45.384Z,5772
2016-11-17T11:26:54.024Z,4792
2016-11-17T11:28:02.673Z,5080
2016-11-17T11:29:11.340Z,5204
2016-11-17T11:30:19.987Z,4432
2016-11-17T11:31:28.629Z,3028
2016-11-17T11:32:37.253Z,3712
2016-11-17T11:33:45.891Z,5824
2016-11-17T11:34:54.520Z,5712
2016-11-17T11:36:03.175Z,6364
2016-11-17T11:37:11.788Z,8368
2016-11-17T11:38:20.414Z,7824
2016-11-17T11:39:29.348Z,7568
2016-11-17T11:40:37.981Z,7676
2016-11-17T11:41:46.615Z,8052
2016-11-17T11:42:55.248Z,8524
2016-11-17T11:44:03.887Z,7900
2016-11-17T11:45:12.529Z,7244
2016-11-17T11:46:21.157Z,6948
2016-11-17T11:47:29.779Z,6252
2016-11-17T11:48:38.400Z,5508
2016-11-17T11:49:47.050Z,5284
2016-11-17T11:50:55.694Z,6088
2016-11-17T11:52:04.385Z,5888
2016-11-17T11:53:13.009Z,6664
2016-11-17T11:54:21.630Z,6648
2016-11-17T11:55:30.282Z,7000
2016-11-17T11:56:38.923Z,10184
2016-11-17T11:57:47.549Z,10032
2016-11-17T11:58:56.191Z,10332
2016-11-17T12:00:04.818Z,8188
2016-11-17T12:01:13.463Z,7480
2016-11-17T12:02:22.080Z,6932
2016-11-17T12:03:30.699Z,5396
2016-11-17T12:04:39.326Z,5984
2016-11-17T12:05:47.969Z,5884
2016-11-17T12:06:56.586Z,7520
2016-11-17T12:08:05.215Z,9196
2016-11-17T12:09:13.857Z,9072
2016-11-17T12:10:22.477Z,9280
2016-11-17T12:11:31.106Z,11408
2016-11-17T12:12:39.723Z,9568
2016-11-17T12:13:48.348Z,9648
2016-11-17T12:14:56.987Z,9784
2016-11-17T12:16:05.926Z,8220
2016-11-17T12:17:14.576Z,6832
2016-11-17T12:18:23.217Z,4708
2016-11-17T12:19:31.851Z,5092
2016-11-17T12:20:40.493Z,6084
2016-11-17T12:21:49.106Z,5560
2016-11-17T12:22:57.740Z,5908
2016-11-17T12:24:06.381Z,6208
2016-11-17T12:25:15.002Z,5980
2016-11-17T12:26:23.627Z,6264
2016-11-17T12:27:32.250Z,6960
2016-11-17T12:28:40.868Z,6700
2016-11-17T12:29:49.493Z,6368
2016-11-17T12:30:58.141Z,6712
2016-11-17T12:32:06.776Z,6664
2016-11-17T12:33:15.400Z,6904
2016-11-17T12:34:24.039Z,5740
2016-11-17T12:35:32.672Z,5224
2016-11-17T12:36:41.294Z,4876
2016-11-17T12:37:49.940Z,4484
2016-11-17T12:38:58.587Z,3932
2016-11-17T12:40:07.226Z,3868
2016-11-17T12:41:15.827Z,4052
2016-11-17T12:42:24.444Z,4272
2016-11-17T12:43:33.065Z,4740
2016-11-17T12:44:41.987Z,4976
2016-11-17T12:45:50.933Z,5268
2016-11-17T12:46:59.563Z,5376
2016-11-17T12:48:08.200Z,5272
2016-11-17T12:49:16.796Z,5600
2016-11-17T12:50:25.418Z,6216
2016-11-17T12:51:34.039Z,5616
2016-11-17T12:52:42.653Z,5780
2016-11-17T12:53:51.300Z,6216
2016-11-17T12:54:59.932Z,6764
2016-11-17T12:56:08.554Z,7488
2016-11-17T12:57:17.241Z,8116
2016-11-17T12:58:25.868Z,10388
2016-11-17T12:59:34.510Z,8936
2016-11-17T13:00:43.142Z,7812
2016-11-17T13:01:51.780Z,7828
2016-11-17T13:03:00.422Z,6912
2016-11-17T13:04:09.064Z,5400
2016-11-17T13:05:17.709Z,4804
2016-11-17T13:06:26.343Z,4408
2016-11-17T13:07:34.989Z,4452
2016-11-17T13:08:43.615Z,5080
2016-11-17T13:09:52.545Z,5804
2016-11-17T13:11:01.173Z,6032
2016-11-17T13:12:09.819Z,5776
2016-11-17T13:13:18.433Z,5524
2016-11-17T13:14:27.067Z,5308
2016-11-17T13:15:35.710Z,4908
2016-11-17T13:16:44.333Z,4564
2016-11-17T13:17:52.950Z,4300
2016-11-17T13:19:01.873Z,4080
2016-11-17T13:20:10.493Z,4220
2016-11-17T13:21:19.131Z,4244
2016-11-17T13:22:27.781Z,3844
2016-11-17T13:23:36.409Z,3468
2016-11-17T13:24:45.049Z,3488
2016-11-17T13:25:53.678Z,3532
2016-11-17T13:27:02.300Z,3372
2016-11-17T13:28:10.957Z,3320
2016-11-17T13:29:19.611Z,3388
2016-11-17T13:30:28.225Z,3544
2016-11-17T13:31:36.853Z,3544
2016-11-17T13:32:45.492Z,3268
2016-11-17T13:33:54.121Z,2820
2016-11-17T13:35:02.742Z,2412
2016-11-17T13:36:11.364Z,2288
2016-11-17T13:37:19.965Z,2144
2016-11-17T13:38:28.638Z,2152
2016-11-17T13:39:37.256Z,2464
2016-11-17T13:40:45.897Z,2392
2016-11-17T13:41:54.540Z,1996
2016-11-17T13:43:03.211Z,1568
2016-11-17T13:44:11.867Z,1324
2016-11-17T13:45:20.499Z,1208
2016-11-17T13:46:29.107Z,1256
2016-11-17T13:47:37.753Z,1500
2016-11-17T13:48:46.414Z,1760
2016-11-17T13:49:55.372Z,2024
2016-11-17T13:51:04.006Z,2508
2016-11-17T13:52:12.638Z,2828
2016-11-17T13:53:21.302Z,2708
2016-11-17T13:54:29.930Z,2412
2016-11-17T13:55:38.551Z,2172
2016-11-17T13:56:47.190Z,1844
2016-11-17T13:57:55.836Z,1724
2016-11-17T13:59:04.486Z,1816
2016-11-17T14:00:13.129Z,1772
2016-11-17T14:01:21.756Z,1564
2016-11-17T14:02:30.375Z,1288
2016-11-17T14:03:38.999Z,1216
2016-11-17T14:04:47.647Z,1368
2016-11-17T14:05:56.305Z,1484
2016-11-17T14:07:04.951Z,1544
2016-11-17T14:08:13.584Z,1660
2016-11-17T14:09:22.231Z,1576
2016-11-17T14:10:30.873Z,1368
2016-11-17T14:11:39.850Z,1376
2016-11-17T14:12:48.486Z,1400
2016-11-17T14:13:57.165Z,1364
2016-11-17T14:15:06.107Z,1388
2016-11-17T14:16:14.730Z,1376
2016-11-17T14:17:23.349Z,1344
2016-11-17T14:18:31.970Z,1356
2016-11-17T14:19:40.590Z,1336
2016-11-17T14:20:49.219Z,1120
2016-11-17T14:21:57.851Z,892
2016-11-17T14:23:06.470Z,768
2016-11-17T14:24:15.104Z,716
2016-11-17T14:25:23.750Z,680
2016-11-17T14:26:32.393Z,800
2016-11-17T14:27:41.013Z,964
2016-11-17T14:28:49.652Z,1128
2016-11-17T14:29:58.282Z,1292
2016-11-17T14:31:06.901Z,1284
2016-11-17T14:32:15.834Z,1092
2016-11-17T14:33:24.510Z,924
2016-11-17T14:34:33.161Z,804
2016-11-17T14:35:41.790Z,724
2016-11-17T14:36:50.431Z,760
2016-11-17T14:37:59.059Z,800
2016-11-17T14:39:07.699Z,720
2016-11-17T14:40:16.322Z,660
2016-11-17T14:41:24.941Z,604
2016-11-17T14:42:33.562Z,548
2016-11-17T14:43:42.188Z,540
2016-11-17T14:44:50.831Z,504
2016-11-17T14:45:59.476Z,468
2016-11-17T14:47:08.101Z,464
2016-11-17T14:48:16.747Z,452
2016-11-17T14:49:25.410Z,440
2016-11-17T14:50:34.039Z,416
2016-11-17T14:51:42.678Z,348
2016-11-17T14:52:51.302Z,288
2016-11-17T14:53:59.927Z,248
2016-11-17T14:55:08.570Z,196
2016-11-17T14:56:17.195Z,152
2016-11-17T14:57:25.811Z,136
2016-11-17T14:58:34.409Z,128
2016-11-17T14:59:43.051Z,128
2016-11-17T15:00:52.022Z,116
2016-11-17T15:02:00.675Z,112
2016-11-17T15:03:09.293Z,120
2016-11-17T15:04:17.913Z,120
2016-11-17T15:05:26.539Z,116
2016-11-17T15:06:35.162Z,104
2016-11-17T15:07:43.806Z,88
2016-11-17T15:08:52.441Z,96
2016-11-17T15:10:01.091Z,104
2016-11-17T15:11:09.720Z,108
2016-11-17T15:12:18.366Z,92
2016-11-17T15:13:27.039Z,84
2016-11-17T15:14:35.675Z,80
2016-11-17T15:15:44.304Z,72
2016-11-17T15:16:52.938Z,68
2016-11-17T15:18:01.597Z,64
2016-11-17T15:19:10.237Z,60
2016-11-17T15:20:18.927Z,52
2016-11-17T15:21:27.555Z,44
2016-11-17T15:22:36.168Z,36
2016-11-17T15:23:45.189Z,28
2016-11-17T15:24:53.818Z,28
2016-11-17T15:26:02.457Z,28
2016-11-17T15:27:11.088Z,28
2016-11-17T15:28:19.724Z,20
2016-11-17T15:29:28.377Z,16
2016-11-17T15:30:37.065Z,12
2016-11-17T15:31:45.717Z,12
2016-11-17T15:32:54.322Z,8
2016-11-17T15:34:02.964Z,8
2016-11-17T15:35:11.655Z,8
2016-11-17T15:36:20.277Z,8
2016-11-17T15:37:28.930Z,8
2016-11-17T15:38:37.573Z,8
2016-11-17T15:39:46.194Z,4
2016-11-17T15:40:54.856Z,4
2016-11-17T15:42:03.460Z,4
2016-11-17T15:43:12.082Z,4
2016-11-17T15:44:20.694Z,4
2016-11-17T15:45:29.323Z,4
2016-11-17T15:46:37.936Z,4
2016-11-17T15:47:46.565Z,4
2016-11-17T15:48:55.182Z,4
2016-11-17T15:50:03.817Z,4
2016-11-17T15:51:12.475Z,4
2016-11-17T15:52:21.099Z,4
2016-11-17T15:53:29.743Z,4
2016-11-17T15:54:38.370Z,4
2016-11-17T15:55:47.018Z,4
2016-11-17T15:56:55.656Z,4
2016-11-17T15:58:04.284Z,4
2016-11-17T15:59:12.928Z,4
2016-11-17T16:00:21.548Z,4